sensor_id;sensor_type;location;lat;lon;timestamp;P1;durP1;ratioP1;P2;durP2;ratioP2
54452;SDS011;40363;52.270;10.546;2022-08-06T00:01:48;1.20;;;0.65;;
54452;SDS011;40363;52.270;10.546;2022-08-06T00:04:15;0.75;;;0.40;;
54452;SDS011;40363;52.270;10.546;2022-08-06T00:06:42;1.83;;;0.80;;
54452;SDS011;40363;52.270;10.546;2022-08-06T00:09:09;3.13;;;0.63;;
54452;SDS011;40363;52.270;10.546;2022-08-06T00:11:37;1.50;;;0.80;;
54452;SDS011;40363;52.270;10.546;2022-08-06T00:14:04;1.85;;;0.70;;
54452;SDS011;40363;52.270;10.546;2022-08-06T00:16:33;1.48;;;0.85;;
54452;SDS011;40363;52.270;10.546;2022-08-06T00:19:00;2.15;;;1.08;;
54452;SDS011;40363;52.270;10.546;2022-08-06T00:21:26;1.85;;;1.05;;
54452;SDS011;40363;52.270;10.546;2022-08-06T00:23:53;1.70;;;0.75;;
54452;SDS011;40363;52.270;10.546;2022-08-06T00:26:19;1.58;;;0.50;;
54452;SDS011;40363;52.270;10.546;2022-08-06T00:28:46;2.20;;;0.85;;
54452;SDS011;40363;52.270;10.546;2022-08-06T00:31:13;1.50;;;0.60;;
54452;SDS011;40363;52.270;10.546;2022-08-06T00:33:41;2.63;;;0.70;;
54452;SDS011;40363;52.270;10.546;2022-08-06T00:36:08;2.17;;;0.77;;
54452;SDS011;40363;52.270;10.546;2022-08-06T00:38:35;1.83;;;0.80;;
54452;SDS011;40363;52.270;10.546;2022-08-06T00:41:02;0.95;;;0.85;;
54452;SDS011;40363;52.270;10.546;2022-08-06T00:43:28;0.60;;;0.60;;
54452;SDS011;40363;52.270;10.546;2022-08-06T00:45:55;2.45;;;0.70;;
54452;SDS011;40363;52.270;10.546;2022-08-06T00:48:22;1.95;;;0.73;;
54452;SDS011;40363;52.270;10.546;2022-08-06T00:50:50;1.75;;;0.70;;
54452;SDS011;40363;52.270;10.546;2022-08-06T00:53:16;0.88;;;0.63;;
54452;SDS011;40363;52.270;10.546;2022-08-06T00:55:43;1.80;;;0.82;;
54452;SDS011;40363;52.270;10.546;2022-08-06T00:58:09;1.42;;;1.00;;
54452;SDS011;40363;52.270;10.546;2022-08-06T01:00:36;1.85;;;0.77;;
54452;SDS011;40363;52.270;10.546;2022-08-06T01:03:03;1.00;;;0.68;;
54452;SDS011;40363;52.270;10.546;2022-08-06T01:05:29;1.13;;;0.73;;
54452;SDS011;40363;52.270;10.546;2022-08-06T01:07:57;2.75;;;0.77;;
54452;SDS011;40363;52.270;10.546;2022-08-06T01:10:24;2.95;;;0.75;;
54452;SDS011;40363;52.270;10.546;2022-08-06T01:12:50;0.80;;;0.60;;
54452;SDS011;40363;52.270;10.546;2022-08-06T01:15:17;0.70;;;0.60;;
54452;SDS011;40363;52.270;10.546;2022-08-06T01:17:46;1.05;;;0.55;;
54452;SDS011;40363;52.270;10.546;2022-08-06T01:20:20;1.25;;;0.90;;
54452;SDS011;40363;52.270;10.546;2022-08-06T01:23:02;1.30;;;0.70;;
54452;SDS011;40363;52.270;10.546;2022-08-06T01:25:47;0.95;;;0.80;;
54452;SDS011;40363;52.270;10.546;2022-08-06T01:28:30;2.58;;;0.85;;
54452;SDS011;40363;52.270;10.546;2022-08-06T01:31:04;1.52;;;0.90;;
54452;SDS011;40363;52.270;10.546;2022-08-06T01:33:35;1.20;;;0.77;;
54452;SDS011;40363;52.270;10.546;2022-08-06T01:36:08;1.00;;;0.60;;
54452;SDS011;40363;52.270;10.546;2022-08-06T01:38:39;1.42;;;0.70;;
54452;SDS011;40363;52.270;10.546;2022-08-06T01:41:11;1.30;;;0.80;;
54452;SDS011;40363;52.270;10.546;2022-08-06T01:44:04;0.68;;;0.50;;
54452;SDS011;40363;52.270;10.546;2022-08-06T01:46:32;2.17;;;0.98;;
54452;SDS011;40363;52.270;10.546;2022-08-06T01:49:02;0.93;;;0.70;;
54452;SDS011;40363;52.270;10.546;2022-08-06T01:51:31;1.65;;;0.65;;
54452;SDS011;40363;52.270;10.546;2022-08-06T01:54:00;2.22;;;0.85;;
54452;SDS011;40363;52.270;10.546;2022-08-06T01:56:29;2.20;;;0.70;;
54452;SDS011;40363;52.270;10.546;2022-08-06T01:59:00;1.13;;;0.70;;
54452;SDS011;40363;52.270;10.546;2022-08-06T02:01:30;2.92;;;0.77;;
54452;SDS011;40363;52.270;10.546;2022-08-06T02:03:58;5.30;;;0.90;;
54452;SDS011;40363;52.270;10.546;2022-08-06T02:06:27;3.05;;;1.08;;
54452;SDS011;40363;52.270;10.546;2022-08-06T02:08:58;3.72;;;1.05;;
54452;SDS011;40363;52.270;10.546;2022-08-06T02:11:29;1.05;;;0.80;;
54452;SDS011;40363;52.270;10.546;2022-08-06T02:13:57;1.23;;;0.73;;
54452;SDS011;40363;52.270;10.546;2022-08-06T02:16:26;1.75;;;0.80;;
54452;SDS011;40363;52.270;10.546;2022-08-06T02:18:58;1.85;;;0.70;;
54452;SDS011;40363;52.270;10.546;2022-08-06T02:21:27;1.60;;;0.80;;
54452;SDS011;40363;52.270;10.546;2022-08-06T02:23:57;2.63;;;1.00;;
54452;SDS011;40363;52.270;10.546;2022-08-06T02:26:26;0.80;;;0.80;;
54452;SDS011;40363;52.270;10.546;2022-08-06T02:28:53;2.15;;;0.93;;
54452;SDS011;40363;52.270;10.546;2022-08-06T02:31:24;0.70;;;0.70;;
54452;SDS011;40363;52.270;10.546;2022-08-06T02:33:52;0.95;;;0.93;;
54452;SDS011;40363;52.270;10.546;2022-08-06T02:36:19;2.42;;;1.20;;
54452;SDS011;40363;52.270;10.546;2022-08-06T02:38:52;1.13;;;0.68;;
54452;SDS011;40363;52.270;10.546;2022-08-06T02:41:23;2.15;;;0.90;;
54452;SDS011;40363;52.270;10.546;2022-08-06T02:43:56;2.25;;;0.80;;
54452;SDS011;40363;52.270;10.546;2022-08-06T02:46:29;1.10;;;1.00;;
54452;SDS011;40363;52.270;10.546;2022-08-06T02:49:03;1.27;;;0.75;;
54452;SDS011;40363;52.270;10.546;2022-08-06T02:51:36;7.55;;;1.55;;
54452;SDS011;40363;52.270;10.546;2022-08-06T02:54:07;1.00;;;0.90;;
54452;SDS011;40363;52.270;10.546;2022-08-06T02:56:40;2.25;;;0.90;;
54452;SDS011;40363;52.270;10.546;2022-08-06T02:59:11;1.67;;;1.00;;
54452;SDS011;40363;52.270;10.546;2022-08-06T03:01:41;1.90;;;1.00;;
54452;SDS011;40363;52.270;10.546;2022-08-06T03:04:12;3.22;;;1.30;;
54452;SDS011;40363;52.270;10.546;2022-08-06T03:06:41;5.90;;;1.50;;
54452;SDS011;40363;52.270;10.546;2022-08-06T03:09:11;1.33;;;1.10;;
54452;SDS011;40363;52.270;10.546;2022-08-06T03:11:40;2.03;;;1.10;;
54452;SDS011;40363;52.270;10.546;2022-08-06T03:14:07;2.30;;;1.17;;
54452;SDS011;40363;52.270;10.546;2022-08-06T03:16:36;2.38;;;0.90;;
54452;SDS011;40363;52.270;10.546;2022-08-06T03:19:04;1.27;;;0.93;;
54452;SDS011;40363;52.270;10.546;2022-08-06T03:21:34;2.40;;;1.10;;
54452;SDS011;40363;52.270;10.546;2022-08-06T03:24:02;2.63;;;1.05;;
54452;SDS011;40363;52.270;10.546;2022-08-06T03:26:30;2.33;;;1.23;;
54452;SDS011;40363;52.270;10.546;2022-08-06T03:28:58;3.08;;;1.00;;
54452;SDS011;40363;52.270;10.546;2022-08-06T03:31:26;1.20;;;0.95;;
54452;SDS011;40363;52.270;10.546;2022-08-06T03:33:53;2.45;;;0.93;;
54452;SDS011;40363;52.270;10.546;2022-08-06T03:36:20;2.88;;;1.02;;
54452;SDS011;40363;52.270;10.546;2022-08-06T03:38:50;1.73;;;0.98;;
54452;SDS011;40363;52.270;10.546;2022-08-06T03:41:22;1.45;;;1.00;;
54452;SDS011;40363;52.270;10.546;2022-08-06T03:43:50;5.10;;;1.13;;
54452;SDS011;40363;52.270;10.546;2022-08-06T03:46:18;1.85;;;1.08;;
54452;SDS011;40363;52.270;10.546;2022-08-06T03:48:47;1.13;;;0.85;;
54452;SDS011;40363;52.270;10.546;2022-08-06T03:51:17;1.67;;;1.00;;
54452;SDS011;40363;52.270;10.546;2022-08-06T03:53:47;1.38;;;0.90;;
54452;SDS011;40363;52.270;10.546;2022-08-06T03:56:20;2.00;;;1.00;;
54452;SDS011;40363;52.270;10.546;2022-08-06T03:58:49;1.65;;;1.20;;
54452;SDS011;40363;52.270;10.546;2022-08-06T04:01:20;2.53;;;1.30;;
54452;SDS011;40363;52.270;10.546;2022-08-06T04:03:50;2.67;;;1.35;;
54452;SDS011;40363;52.270;10.546;2022-08-06T04:06:17;3.25;;;1.20;;
54452;SDS011;40363;52.270;10.546;2022-08-06T04:08:45;2.80;;;1.10;;
54452;SDS011;40363;52.270;10.546;2022-08-06T04:11:13;1.98;;;1.10;;
54452;SDS011;40363;52.270;10.546;2022-08-06T04:13:42;2.83;;;1.40;;
54452;SDS011;40363;52.270;10.546;2022-08-06T04:16:10;4.38;;;1.35;;
54452;SDS011;40363;52.270;10.546;2022-08-06T04:18:38;2.38;;;1.30;;
54452;SDS011;40363;52.270;10.546;2022-08-06T04:21:08;1.10;;;1.00;;
54452;SDS011;40363;52.270;10.546;2022-08-06T04:23:36;2.10;;;1.00;;
54452;SDS011;40363;52.270;10.546;2022-08-06T04:26:04;3.20;;;2.00;;
54452;SDS011;40363;52.270;10.546;2022-08-06T04:28:34;3.47;;;1.20;;
54452;SDS011;40363;52.270;10.546;2022-08-06T04:31:04;1.35;;;0.95;;
54452;SDS011;40363;52.270;10.546;2022-08-06T04:33:34;5.45;;;1.52;;
54452;SDS011;40363;52.270;10.546;2022-08-06T04:36:02;2.28;;;1.50;;
54452;SDS011;40363;52.270;10.546;2022-08-06T04:38:31;3.50;;;1.27;;
54452;SDS011;40363;52.270;10.546;2022-08-06T04:40:59;1.92;;;1.40;;
54452;SDS011;40363;52.270;10.546;2022-08-06T04:43:26;2.00;;;1.30;;
54452;SDS011;40363;52.270;10.546;2022-08-06T04:45:54;1.40;;;1.20;;
54452;SDS011;40363;52.270;10.546;2022-08-06T04:48:23;3.65;;;1.77;;
54452;SDS011;40363;52.270;10.546;2022-08-06T04:50:51;1.98;;;1.30;;
54452;SDS011;40363;52.270;10.546;2022-08-06T04:53:18;2.97;;;1.15;;
54452;SDS011;40363;52.270;10.546;2022-08-06T04:55:45;1.95;;;1.30;;
54452;SDS011;40363;52.270;10.546;2022-08-06T04:58:13;2.00;;;1.38;;
54452;SDS011;40363;52.270;10.546;2022-08-06T05:00:44;1.05;;;0.95;;
54452;SDS011;40363;52.270;10.546;2022-08-06T05:03:11;1.52;;;1.25;;
54452;SDS011;40363;52.270;10.546;2022-08-06T05:05:41;5.80;;;1.50;;
54452;SDS011;40363;52.270;10.546;2022-08-06T05:08:11;5.35;;;1.55;;
54452;SDS011;40363;52.270;10.546;2022-08-06T05:10:41;2.42;;;1.10;;
54452;SDS011;40363;52.270;10.546;2022-08-06T05:13:11;5.00;;;1.42;;
54452;SDS011;40363;52.270;10.546;2022-08-06T05:15:40;2.40;;;1.13;;
54452;SDS011;40363;52.270;10.546;2022-08-06T05:18:10;2.40;;;1.20;;
54452;SDS011;40363;52.270;10.546;2022-08-06T05:20:46;1.42;;;1.33;;
54452;SDS011;40363;52.270;10.546;2022-08-06T05:23:17;2.45;;;1.17;;
54452;SDS011;40363;52.270;10.546;2022-08-06T05:25:46;4.10;;;1.30;;
54452;SDS011;40363;52.270;10.546;2022-08-06T05:28:13;4.20;;;1.10;;
54452;SDS011;40363;52.270;10.546;2022-08-06T05:30:43;1.80;;;1.10;;
54452;SDS011;40363;52.270;10.546;2022-08-06T05:33:11;1.42;;;0.95;;
54452;SDS011;40363;52.270;10.546;2022-08-06T05:35:48;3.05;;;1.50;;
54452;SDS011;40363;52.270;10.546;2022-08-06T05:38:15;3.55;;;1.48;;
54452;SDS011;40363;52.270;10.546;2022-08-06T05:40:42;23.65;;;2.00;;
54452;SDS011;40363;52.270;10.546;2022-08-06T05:43:09;2.45;;;1.17;;
54452;SDS011;40363;52.270;10.546;2022-08-06T05:45:36;1.08;;;1.00;;
54452;SDS011;40363;52.270;10.546;2022-08-06T05:48:05;1.35;;;1.00;;
54452;SDS011;40363;52.270;10.546;2022-08-06T05:50:35;3.20;;;1.10;;
54452;SDS011;40363;52.270;10.546;2022-08-06T05:53:08;1.65;;;1.10;;
54452;SDS011;40363;52.270;10.546;2022-08-06T05:55:39;2.05;;;1.20;;
54452;SDS011;40363;52.270;10.546;2022-08-06T05:58:11;2.10;;;1.40;;
54452;SDS011;40363;52.270;10.546;2022-08-06T06:00:41;1.10;;;1.00;;
54452;SDS011;40363;52.270;10.546;2022-08-06T06:03:09;3.53;;;0.98;;
54452;SDS011;40363;52.270;10.546;2022-08-06T06:05:41;1.25;;;1.00;;
54452;SDS011;40363;52.270;10.546;2022-08-06T06:08:10;1.35;;;1.02;;
54452;SDS011;40363;52.270;10.546;2022-08-06T06:10:37;1.65;;;0.90;;
54452;SDS011;40363;52.270;10.546;2022-08-06T06:13:06;1.65;;;1.00;;
54452;SDS011;40363;52.270;10.546;2022-08-06T06:15:34;1.20;;;0.90;;
54452;SDS011;40363;52.270;10.546;2022-08-06T06:18:08;0.80;;;0.80;;
54452;SDS011;40363;52.270;10.546;2022-08-06T06:20:46;3.05;;;1.10;;
54452;SDS011;40363;52.270;10.546;2022-08-06T06:23:20;1.90;;;1.10;;
54452;SDS011;40363;52.270;10.546;2022-08-06T06:25:57;2.50;;;1.00;;
54452;SDS011;40363;52.270;10.546;2022-08-06T06:28:31;3.88;;;0.90;;
54452;SDS011;40363;52.270;10.546;2022-08-06T06:31:04;1.90;;;0.93;;
54452;SDS011;40363;52.270;10.546;2022-08-06T06:33:38;2.92;;;0.98;;
54452;SDS011;40363;52.270;10.546;2022-08-06T06:36:16;0.80;;;0.80;;
54452;SDS011;40363;52.270;10.546;2022-08-06T06:38:53;1.85;;;0.88;;
54452;SDS011;40363;52.270;10.546;2022-08-06T06:41:27;1.73;;;0.80;;
54452;SDS011;40363;52.270;10.546;2022-08-06T06:44:02;1.85;;;0.95;;
54452;SDS011;40363;52.270;10.546;2022-08-06T06:46:36;3.40;;;0.85;;
54452;SDS011;40363;52.270;10.546;2022-08-06T06:49:10;1.27;;;0.80;;
54452;SDS011;40363;52.270;10.546;2022-08-06T06:51:41;1.75;;;0.63;;
54452;SDS011;40363;52.270;10.546;2022-08-06T06:54:12;1.65;;;0.85;;
54452;SDS011;40363;52.270;10.546;2022-08-06T06:56:46;3.42;;;0.68;;
54452;SDS011;40363;52.270;10.546;2022-08-06T06:59:15;5.45;;;0.80;;
54452;SDS011;40363;52.270;10.546;2022-08-06T07:01:46;1.70;;;0.73;;
54452;SDS011;40363;52.270;10.546;2022-08-06T07:04:16;1.65;;;0.80;;
54452;SDS011;40363;52.270;10.546;2022-08-06T07:06:44;1.60;;;0.50;;
54452;SDS011;40363;52.270;10.546;2022-08-06T07:09:15;1.05;;;0.60;;
54452;SDS011;40363;52.270;10.546;2022-08-06T07:11:44;1.30;;;0.73;;
54452;SDS011;40363;52.270;10.546;2022-08-06T07:14:15;3.90;;;0.80;;
54452;SDS011;40363;52.270;10.546;2022-08-06T07:16:43;1.67;;;0.40;;
54452;SDS011;40363;52.270;10.546;2022-08-06T07:19:11;2.30;;;0.68;;
54452;SDS011;40363;52.270;10.546;2022-08-06T07:21:39;1.33;;;0.70;;
54452;SDS011;40363;52.270;10.546;2022-08-06T07:24:08;2.92;;;0.57;;
54452;SDS011;40363;52.270;10.546;2022-08-06T07:26:38;1.33;;;0.60;;
54452;SDS011;40363;52.270;10.546;2022-08-06T07:29:08;1.75;;;0.40;;
54452;SDS011;40363;52.270;10.546;2022-08-06T07:31:36;0.98;;;0.47;;
54452;SDS011;40363;52.270;10.546;2022-08-06T07:34:04;2.33;;;0.47;;
54452;SDS011;40363;52.270;10.546;2022-08-06T07:36:33;0.80;;;0.50;;
54452;SDS011;40363;52.270;10.546;2022-08-06T07:39:13;1.23;;;0.60;;
54452;SDS011;40363;52.270;10.546;2022-08-06T07:41:45;1.58;;;0.57;;
54452;SDS011;40363;52.270;10.546;2022-08-06T07:44:13;1.42;;;0.50;;
54452;SDS011;40363;52.270;10.546;2022-08-06T07:46:41;3.05;;;0.60;;
54452;SDS011;40363;52.270;10.546;2022-08-06T07:49:13;1.00;;;0.40;;
54452;SDS011;40363;52.270;10.546;2022-08-06T07:51:42;1.25;;;0.57;;
54452;SDS011;40363;52.270;10.546;2022-08-06T07:54:11;1.38;;;0.50;;
54452;SDS011;40363;52.270;10.546;2022-08-06T07:56:39;6.22;;;0.85;;
54452;SDS011;40363;52.270;10.546;2022-08-06T07:59:09;3.42;;;0.50;;
54452;SDS011;40363;52.270;10.546;2022-08-06T08:01:36;2.78;;;0.77;;
54452;SDS011;40363;52.270;10.546;2022-08-06T08:04:05;1.52;;;0.50;;
54452;SDS011;40363;52.270;10.546;2022-08-06T08:09:16;3.13;;;0.40;;
54452;SDS011;40363;52.270;10.546;2022-08-06T08:11:45;2.53;;;1.15;;
54452;SDS011;40363;52.270;10.546;2022-08-06T08:14:15;0.95;;;0.63;;
54452;SDS011;40363;52.270;10.546;2022-08-06T08:16:44;2.33;;;0.50;;
54452;SDS011;40363;52.270;10.546;2022-08-06T08:19:24;1.83;;;0.50;;
54452;SDS011;40363;52.270;10.546;2022-08-06T08:21:56;2.43;;;0.50;;
54452;SDS011;40363;52.270;10.546;2022-08-06T08:24:23;1.85;;;0.40;;
54452;SDS011;40363;52.270;10.546;2022-08-06T08:26:51;3.08;;;0.52;;
54452;SDS011;40363;52.270;10.546;2022-08-06T08:29:20;2.53;;;0.57;;
54452;SDS011;40363;52.270;10.546;2022-08-06T08:31:47;3.20;;;0.60;;
54452;SDS011;40363;52.270;10.546;2022-08-06T08:34:14;1.30;;;0.60;;
54452;SDS011;40363;52.270;10.546;2022-08-06T08:36:41;3.35;;;0.93;;
54452;SDS011;40363;52.270;10.546;2022-08-06T08:39:07;3.17;;;0.70;;
54452;SDS011;40363;52.270;10.546;2022-08-06T08:41:36;0.57;;;0.30;;
54452;SDS011;40363;52.270;10.546;2022-08-06T08:44:06;3.22;;;0.60;;
54452;SDS011;40363;52.270;10.546;2022-08-06T08:46:37;0.73;;;0.55;;
54452;SDS011;40363;52.270;10.546;2022-08-06T08:49:04;2.08;;;0.40;;
54452;SDS011;40363;52.270;10.546;2022-08-06T08:51:33;1.48;;;0.50;;
54452;SDS011;40363;52.270;10.546;2022-08-06T08:54:04;1.08;;;0.40;;
54452;SDS011;40363;52.270;10.546;2022-08-06T08:56:32;2.28;;;0.50;;
54452;SDS011;40363;52.270;10.546;2022-08-06T08:59:00;1.77;;;0.40;;
54452;SDS011;40363;52.270;10.546;2022-08-06T09:01:28;0.98;;;0.50;;
54452;SDS011;40363;52.270;10.546;2022-08-06T09:03:57;2.40;;;0.50;;
54452;SDS011;40363;52.270;10.546;2022-08-06T09:06:24;2.22;;;0.50;;
54452;SDS011;40363;52.270;10.546;2022-08-06T09:08:51;0.95;;;0.38;;
54452;SDS011;40363;52.270;10.546;2022-08-06T09:11:18;2.17;;;0.75;;
54452;SDS011;40363;52.270;10.546;2022-08-06T09:13:46;3.85;;;0.70;;
54452;SDS011;40363;52.270;10.546;2022-08-06T09:16:12;1.58;;;0.40;;
54452;SDS011;40363;52.270;10.546;2022-08-06T09:18:39;0.38;;;0.20;;
54452;SDS011;40363;52.270;10.546;2022-08-06T09:21:07;1.40;;;0.43;;
54452;SDS011;40363;52.270;10.546;2022-08-06T09:23:36;1.27;;;0.50;;
54452;SDS011;40363;52.270;10.546;2022-08-06T09:26:04;0.98;;;0.43;;
54452;SDS011;40363;52.270;10.546;2022-08-06T09:28:33;1.05;;;0.40;;
54452;SDS011;40363;52.270;10.546;2022-08-06T09:31:02;0.85;;;0.40;;
54452;SDS011;40363;52.270;10.546;2022-08-06T09:33:31;1.48;;;0.50;;
54452;SDS011;40363;52.270;10.546;2022-08-06T09:36:00;1.02;;;0.30;;
54452;SDS011;40363;52.270;10.546;2022-08-06T09:38:29;2.20;;;0.50;;
54452;SDS011;40363;52.270;10.546;2022-08-06T09:41:07;1.50;;;0.28;;
54452;SDS011;40363;52.270;10.546;2022-08-06T09:43:35;0.40;;;0.30;;
54452;SDS011;40363;52.270;10.546;2022-08-06T09:46:15;0.35;;;0.28;;
54452;SDS011;40363;52.270;10.546;2022-08-06T09:48:58;1.10;;;0.40;;
54452;SDS011;40363;52.270;10.546;2022-08-06T09:51:26;3.00;;;0.63;;
54452;SDS011;40363;52.270;10.546;2022-08-06T09:53:56;0.52;;;0.30;;
54452;SDS011;40363;52.270;10.546;2022-08-06T09:56:25;0.52;;;0.40;;
54452;SDS011;40363;52.270;10.546;2022-08-06T09:58:56;1.48;;;0.45;;
54452;SDS011;40363;52.270;10.546;2022-08-06T10:01:25;1.50;;;0.30;;
54452;SDS011;40363;52.270;10.546;2022-08-06T10:03:53;2.10;;;0.63;;
54452;SDS011;40363;52.270;10.546;2022-08-06T10:06:20;1.38;;;0.25;;
54452;SDS011;40363;52.270;10.546;2022-08-06T10:08:47;2.35;;;0.40;;
54452;SDS011;40363;52.270;10.546;2022-08-06T10:11:31;2.47;;;1.30;;
54452;SDS011;40363;52.270;10.546;2022-08-06T10:14:00;1.10;;;0.60;;
54452;SDS011;40363;52.270;10.546;2022-08-06T10:16:27;1.85;;;0.50;;
54452;SDS011;40363;52.270;10.546;2022-08-06T10:18:55;4.50;;;0.50;;
54452;SDS011;40363;52.270;10.546;2022-08-06T10:21:23;1.17;;;0.63;;
54452;SDS011;40363;52.270;10.546;2022-08-06T10:23:52;1.63;;;0.38;;
54452;SDS011;40363;52.270;10.546;2022-08-06T10:26:24;0.47;;;0.30;;
54452;SDS011;40363;52.270;10.546;2022-08-06T10:28:52;2.83;;;0.65;;
54452;SDS011;40363;52.270;10.546;2022-08-06T10:31:20;4.70;;;0.70;;
54452;SDS011;40363;52.270;10.546;2022-08-06T10:33:48;0.90;;;0.38;;
54452;SDS011;40363;52.270;10.546;2022-08-06T10:36:19;0.20;;;0.20;;
54452;SDS011;40363;52.270;10.546;2022-08-06T10:38:51;1.30;;;0.30;;
54452;SDS011;40363;52.270;10.546;2022-08-06T10:41:20;1.42;;;0.43;;
54452;SDS011;40363;52.270;10.546;2022-08-06T10:43:50;0.95;;;0.30;;
54452;SDS011;40363;52.270;10.546;2022-08-06T10:46:20;2.30;;;0.32;;
54452;SDS011;40363;52.270;10.546;2022-08-06T10:48:46;0.10;;;0.10;;
54452;SDS011;40363;52.270;10.546;2022-08-06T10:51:14;0.85;;;0.40;;
54452;SDS011;40363;52.270;10.546;2022-08-06T10:53:42;0.60;;;0.30;;
54452;SDS011;40363;52.270;10.546;2022-08-06T10:56:11;1.75;;;0.50;;
54452;SDS011;40363;52.270;10.546;2022-08-06T10:58:40;3.05;;;0.30;;
54452;SDS011;40363;52.270;10.546;2022-08-06T11:01:08;1.45;;;0.38;;
54452;SDS011;40363;52.270;10.546;2022-08-06T11:03:51;3.33;;;0.30;;
54452;SDS011;40363;52.270;10.546;2022-08-06T11:06:33;0.55;;;0.30;;
54452;SDS011;40363;52.270;10.546;2022-08-06T11:09:15;1.02;;;0.30;;
54452;SDS011;40363;52.270;10.546;2022-08-06T11:11:58;1.95;;;0.50;;
54452;SDS011;40363;52.270;10.546;2022-08-06T11:14:40;1.73;;;0.40;;
54452;SDS011;40363;52.270;10.546;2022-08-06T11:17:07;1.58;;;0.20;;
54452;SDS011;40363;52.270;10.546;2022-08-06T11:19:38;1.88;;;0.32;;
54452;SDS011;40363;52.270;10.546;2022-08-06T11:22:07;0.60;;;0.30;;
54452;SDS011;40363;52.270;10.546;2022-08-06T11:24:42;0.85;;;0.20;;
54452;SDS011;40363;52.270;10.546;2022-08-06T11:30:16;0.25;;;0.25;;
54452;SDS011;40363;52.270;10.546;2022-08-06T11:32:44;3.15;;;0.40;;
54452;SDS011;40363;52.270;10.546;2022-08-06T11:38:04;1.20;;;0.30;;
54452;SDS011;40363;52.270;10.546;2022-08-06T11:46:23;1.48;;;0.30;;
54452;SDS011;40363;52.270;10.546;2022-08-06T11:51:43;0.75;;;0.28;;
54452;SDS011;40363;52.270;10.546;2022-08-06T11:54:11;1.13;;;0.35;;
54452;SDS011;40363;52.270;10.546;2022-08-06T11:59:44;0.40;;;0.20;;
54452;SDS011;40363;52.270;10.546;2022-08-06T12:02:15;0.75;;;0.20;;
54452;SDS011;40363;52.270;10.546;2022-08-06T12:04:43;0.50;;;0.30;;
54452;SDS011;40363;52.270;10.546;2022-08-06T12:07:16;0.85;;;0.40;;
54452;SDS011;40363;52.270;10.546;2022-08-06T12:12:33;1.08;;;0.22;;
54452;SDS011;40363;52.270;10.546;2022-08-06T12:15:03;1.13;;;0.30;;
54452;SDS011;40363;52.270;10.546;2022-08-06T12:17:59;1.05;;;0.32;;
54452;SDS011;40363;52.270;10.546;2022-08-06T12:20:30;0.32;;;0.30;;
54452;SDS011;40363;52.270;10.546;2022-08-06T12:22:58;0.80;;;0.40;;
54452;SDS011;40363;52.270;10.546;2022-08-06T12:25:29;1.33;;;0.30;;
54452;SDS011;40363;52.270;10.546;2022-08-06T12:27:56;2.53;;;0.38;;
54452;SDS011;40363;52.270;10.546;2022-08-06T12:30:23;0.20;;;0.20;;
54452;SDS011;40363;52.270;10.546;2022-08-06T12:32:58;2.08;;;0.40;;
54452;SDS011;40363;52.270;10.546;2022-08-06T12:35:27;0.57;;;0.22;;
54452;SDS011;40363;52.270;10.546;2022-08-06T12:37:54;1.92;;;0.30;;
54452;SDS011;40363;52.270;10.546;2022-08-06T12:40:20;0.88;;;0.30;;
54452;SDS011;40363;52.270;10.546;2022-08-06T12:42:52;0.25;;;0.17;;
54452;SDS011;40363;52.270;10.546;2022-08-06T12:45:19;0.50;;;0.32;;
54452;SDS011;40363;52.270;10.546;2022-08-06T12:47:55;2.83;;;0.30;;
54452;SDS011;40363;52.270;10.546;2022-08-06T12:50:24;0.57;;;0.30;;
54452;SDS011;40363;52.270;10.546;2022-08-06T12:53:01;2.15;;;0.32;;
54452;SDS011;40363;52.270;10.546;2022-08-06T12:55:28;0.98;;;0.20;;
54452;SDS011;40363;52.270;10.546;2022-08-06T12:57:55;1.50;;;0.20;;
54452;SDS011;40363;52.270;10.546;2022-08-06T13:00:22;0.52;;;0.45;;
54452;SDS011;40363;52.270;10.546;2022-08-06T13:02:50;1.58;;;0.20;;
54452;SDS011;40363;52.270;10.546;2022-08-06T13:05:18;0.57;;;0.20;;
54452;SDS011;40363;52.270;10.546;2022-08-06T13:07:47;0.32;;;0.28;;
54452;SDS011;40363;52.270;10.546;2022-08-06T13:10:14;1.85;;;0.47;;
54452;SDS011;40363;52.270;10.546;2022-08-06T13:12:41;1.13;;;0.50;;
54452;SDS011;40363;52.270;10.546;2022-08-06T13:15:11;1.00;;;0.40;;
54452;SDS011;40363;52.270;10.546;2022-08-06T13:17:40;1.20;;;0.30;;
54452;SDS011;40363;52.270;10.546;2022-08-06T13:20:09;0.28;;;0.25;;
54452;SDS011;40363;52.270;10.546;2022-08-06T13:22:49;2.63;;;0.20;;
54452;SDS011;40363;52.270;10.546;2022-08-06T13:25:16;0.30;;;0.20;;
54452;SDS011;40363;52.270;10.546;2022-08-06T13:27:44;0.98;;;0.30;;
54452;SDS011;40363;52.270;10.546;2022-08-06T13:30:11;0.30;;;0.20;;
54452;SDS011;40363;52.270;10.546;2022-08-06T13:32:38;0.63;;;0.30;;
54452;SDS011;40363;52.270;10.546;2022-08-06T13:35:06;0.57;;;0.30;;
54452;SDS011;40363;52.270;10.546;2022-08-06T13:37:46;0.98;;;0.25;;
54452;SDS011;40363;52.270;10.546;2022-08-06T13:40:15;1.55;;;0.65;;
54452;SDS011;40363;52.270;10.546;2022-08-06T13:42:49;0.50;;;0.50;;
54452;SDS011;40363;52.270;10.546;2022-08-06T13:47:45;0.63;;;0.30;;
54452;SDS011;40363;52.270;10.546;2022-08-06T13:50:14;0.55;;;0.22;;
54452;SDS011;40363;52.270;10.546;2022-08-06T13:52:42;0.73;;;0.32;;
54452;SDS011;40363;52.270;10.546;2022-08-06T13:55:09;0.80;;;0.32;;
54452;SDS011;40363;52.270;10.546;2022-08-06T13:57:37;1.92;;;0.43;;
54452;SDS011;40363;52.270;10.546;2022-08-06T14:00:04;0.43;;;0.30;;
54452;SDS011;40363;52.270;10.546;2022-08-06T14:02:32;1.02;;;0.30;;
54452;SDS011;40363;52.270;10.546;2022-08-06T14:04:59;1.10;;;0.20;;
54452;SDS011;40363;52.270;10.546;2022-08-06T14:07:26;0.50;;;0.20;;
54452;SDS011;40363;52.270;10.546;2022-08-06T14:09:52;0.65;;;0.30;;
54452;SDS011;40363;52.270;10.546;2022-08-06T14:12:19;1.02;;;0.30;;
54452;SDS011;40363;52.270;10.546;2022-08-06T14:14:47;2.63;;;0.30;;
54452;SDS011;40363;52.270;10.546;2022-08-06T14:17:15;0.82;;;0.30;;
54452;SDS011;40363;52.270;10.546;2022-08-06T14:19:42;0.50;;;0.25;;
54452;SDS011;40363;52.270;10.546;2022-08-06T14:22:08;0.93;;;0.30;;
54452;SDS011;40363;52.270;10.546;2022-08-06T14:24:35;0.35;;;0.20;;
54452;SDS011;40363;52.270;10.546;2022-08-06T14:27:02;0.55;;;0.20;;
54452;SDS011;40363;52.270;10.546;2022-08-06T14:29:29;0.80;;;0.30;;
54452;SDS011;40363;52.270;10.546;2022-08-06T14:31:58;2.15;;;0.30;;
54452;SDS011;40363;52.270;10.546;2022-08-06T14:34:24;0.38;;;0.28;;
54452;SDS011;40363;52.270;10.546;2022-08-06T14:36:52;2.15;;;0.30;;
54452;SDS011;40363;52.270;10.546;2022-08-06T14:39:19;0.52;;;0.20;;
54452;SDS011;40363;52.270;10.546;2022-08-06T14:41:46;1.80;;;0.40;;
54452;SDS011;40363;52.270;10.546;2022-08-06T14:44:27;0.30;;;0.13;;
54452;SDS011;40363;52.270;10.546;2022-08-06T14:47:13;0.87;;;0.30;;
54452;SDS011;40363;52.270;10.546;2022-08-06T14:49:41;0.22;;;0.17;;
54452;SDS011;40363;52.270;10.546;2022-08-06T14:52:08;1.15;;;0.40;;
54452;SDS011;40363;52.270;10.546;2022-08-06T14:54:35;0.35;;;0.20;;
54452;SDS011;40363;52.270;10.546;2022-08-06T14:57:02;0.45;;;0.30;;
54452;SDS011;40363;52.270;10.546;2022-08-06T14:59:30;0.57;;;0.30;;
54452;SDS011;40363;52.270;10.546;2022-08-06T15:01:57;0.20;;;0.20;;
54452;SDS011;40363;52.270;10.546;2022-08-06T15:04:25;1.58;;;0.52;;
54452;SDS011;40363;52.270;10.546;2022-08-06T15:06:52;0.63;;;0.20;;
54452;SDS011;40363;52.270;10.546;2022-08-06T15:09:19;0.32;;;0.20;;
54452;SDS011;40363;52.270;10.546;2022-08-06T15:11:46;1.50;;;0.30;;
54452;SDS011;40363;52.270;10.546;2022-08-06T15:14:14;1.00;;;0.30;;